Главная страница
METAR-TAF:

METAR-TAF

Аэропорты :

Эсбьерг, Дания

широта: 55-32N, долгота: 008-34E, высота над уровнем моря: 30 м

Текущие метеонаблюдения

Эта сводка был подготовлена 14 минут назад, в 10:50 UTC
Ветер 18 Узел от северо-западный
Температура 7°C
Влажность 81%
Давление 1023 hPa
Видимость 10 км и более
Рассеянная облачность на высоте 2500 фута

METAR: EKEB 261050Z 31018KT 9999 BKN025 07/04 Q1023

Время: 12:04 (11:04 UTC)

Прогноз

Эта сводка был подготовлена 2 часа и 42 минут назад, в 08:22 UTC
Прогноз действительный с 26-го 09 UTC до 26-го 18 UTC
Ветер 15 Узел от северо-западный
Видимость 10 км и более
Отдельные облака на высоте 1200 фута
Рассеянная облачность на высоте 3000 фута
временами
С 26-го 09 UTC до 26-го 12 UTC
Ветер 17 Узел от северо-западный с порывами до 27 Узел
временами
С 26-го 12 UTC до 26-го 18 UTC
Рассеянная облачность на высоте 1000 фута
небольшой дождь, Морось

TAF: EKEB 260822Z 2609/2618 31015KT 9999 SCT012 BKN030 TEMPO 2609/2612 31017G27KT TEMPO 2612/2618 -RADZ BKN010

Метеонаблюдения и прогнозы для более 4000 аэропортов (сводки METAR и TAF).

Имеющиеся станции представлены на карте желтыми и красными точками.

Чтобы увидеть название станции, наведите на нее мышь.

Затем щелкните, чтобы увидеть метеонаблюдения и метеопрогнозы.

Управление картой: чтобы увеличить масштаб, щелкните зеленые кнопки с черным крестиком; чтобы уменьшить масштаб, щелкните зеленую кнопку с тире; для просмотра соседних карт щелкайте зеленые стрелки.


METAR-TAF: